Time;durP1;ratioP1;P1;durP2;ratioP2;P2;SDS_P1;SDS_P2;PMS_P1;PMS_P2;Temp;Humidity;BMP_temperature;BMP_pressure;BME280_temperature;BME280_humidity;BME280_pressure;Samples;Min_cycle;Max_cycle;Signal;HPM_P1;HPM_P2
2021/08/30 00:00:46;;;;;;;1.92;1.40;;;;;;;33.10;23.78;97673.66;5029925;28;20108;-82
2021/08/30 00:03:12;;;;;;;2.35;1.45;;;;;;;32.65;24.49;97669.63;5047214;28;20194;-83
2021/08/30 00:05:38;;;;;;;2.10;1.40;;;;;;;32.25;24.83;97675.38;5043171;28;20045;-82
2021/08/30 00:08:04;;;;;;;2.10;1.65;;;;;;;31.71;25.76;97672.13;5038979;28;20128;-82
2021/08/30 00:10:31;;;;;;;2.15;1.90;;;;;;;31.24;26.26;97670.41;5046379;28;20033;-82
2021/08/30 00:12:57;;;;;;;4.38;1.40;;;;;;;31.12;26.76;97665.03;5042474;28;20040;-82
2021/08/30 00:15:23;;;;;;;1.52;1.40;;;;;;;30.95;26.76;97667.59;5046310;28;20120;-82
2021/08/30 00:17:51;;;;;;;1.20;1.10;;;;;;;30.78;27.07;97660.88;5045918;28;20025;-82
2021/08/30 00:20:19;;;;;;;1.85;1.55;;;;;;;30.90;26.76;97668.28;5046938;28;20033;-82
2021/08/30 00:22:46;;;;;;;2.15;1.38;;;;;;;31.16;26.54;97659.94;5042317;28;20025;-82
2021/08/30 00:25:12;;;;;;;1.10;1.00;;;;;;;31.32;26.06;97660.19;5044770;28;20028;-82
2021/08/30 00:27:39;;;;;;;1.38;1.27;;;;;;;31.30;26.27;97659.13;5042384;28;20032;-82
2021/08/30 00:30:07;;;;;;;1.50;1.40;;;;;;;31.11;26.74;97660.66;5042447;28;20131;-82
2021/08/30 00:32:33;;;;;;;1.45;1.35;;;;;;;30.61;27.34;97654.13;5027621;28;20028;-82
2021/08/30 00:34:59;;;;;;;1.50;1.38;;;;;;;30.53;27.39;97665.06;5047476;28;20559;-82
2021/08/30 00:37:25;;;;;;;1.83;1.50;;;;;;;30.86;26.79;97656.34;5044756;28;20029;-81
2021/08/30 00:39:51;;;;;;;1.73;1.60;;;;;;;30.68;27.07;97659.41;5045556;28;20052;-81
2021/08/30 00:42:19;;;;;;;1.63;1.40;;;;;;;30.73;27.10;97668.00;5047378;28;20496;-82
2021/08/30 00:44:45;;;;;;;1.33;1.23;;;;;;;30.71;27.06;97656.34;5045598;28;20093;-82
2021/08/30 00:47:13;;;;;;;1.75;1.65;;;;;;;30.42;27.55;97656.38;5044708;28;20041;-82
2021/08/30 00:49:40;;;;;;;2.00;1.38;;;;;;;30.32;27.67;97656.91;5040894;28;20080;-82
2021/08/30 00:52:06;;;;;;;1.33;1.23;;;;;;;30.83;26.57;97657.31;5042107;28;20036;-82
2021/08/30 00:54:33;;;;;;;2.17;1.70;;;;;;;30.05;27.95;97661.56;5044775;28;20392;-82
2021/08/30 00:57:02;;;;;;;1.40;1.30;;;;;;;30.48;27.40;97670.66;5045765;28;20033;-81
2021/08/30 00:59:28;;;;;;;1.38;1.27;;;;;;;30.56;27.18;97666.94;5044452;28;20491;-81
2021/08/30 01:01:54;;;;;;;1.60;1.50;;;;;;;30.76;26.86;97669.06;5042293;28;20115;-82
2021/08/30 01:04:20;;;;;;;1.55;1.45;;;;;;;31.05;26.71;97669.06;5047014;28;20037;-82
2021/08/30 01:06:52;;;;;;;2.42;1.35;;;;;;;31.22;26.25;97670.13;5043566;28;20033;-82
2021/08/30 01:09:48;;;;;;;2.05;1.85;;;;;;;31.19;26.55;97673.94;5042376;28;20049;-82
2021/08/30 01:12:22;;;;;;;1.90;1.42;;;;;;;31.40;26.21;97680.44;5049571;28;20041;-82
2021/08/30 01:15:01;;;;;;;1.45;1.35;;;;;;;31.45;26.06;97668.41;5045094;28;20029;-82
2021/08/30 01:17:29;;;;;;;2.53;1.45;;;;;;;31.26;26.16;97675.56;5038077;28;20044;-82
2021/08/30 01:20:09;;;;;;;2.17;1.98;;;;;;;30.86;26.85;97670.53;5045596;28;20375;-82
2021/08/30 01:22:41;;;;;;;3.85;2.70;;;;;;;30.45;27.40;97669.56;5044268;28;20041;-82
2021/08/30 01:25:14;;;;;;;1.73;1.40;;;;;;;30.41;27.49;97674.63;5046635;28;20457;-82
2021/08/30 01:27:42;;;;;;;1.63;1.52;;;;;;;30.57;27.13;97668.47;5041421;28;20508;-82
2021/08/30 01:30:20;;;;;;;2.15;1.52;;;;;;;30.26;27.74;97676.63;5047867;28;20435;-82
2021/08/30 01:32:49;;;;;;;2.30;1.80;;;;;;;30.33;27.47;97675.50;5046286;28;20103;-82
2021/08/30 01:35:19;;;;;;;1.77;1.50;;;;;;;30.11;27.44;97675.81;5047518;28;20025;-83
2021/08/30 01:37:48;;;;;;;1.58;1.48;;;;;;;30.44;27.08;97679.31;5050799;28;20036;-83
2021/08/30 01:40:17;;;;;;;1.60;1.50;;;;;;;30.09;27.68;97672.69;5040243;28;20408;-82
2021/08/30 01:42:47;;;;;;;2.05;1.50;;;;;;;29.42;28.75;97674.09;5049126;28;20048;-83
2021/08/30 01:45:16;;;;;;;1.80;1.40;;;;;;;29.70;28.39;97668.25;5045023;28;20037;-83
2021/08/30 01:47:43;;;;;;;4.30;1.30;;;;;;;29.65;28.47;97658.38;5052583;28;20048;-83
2021/08/30 01:50:14;;;;;;;1.30;1.00;;;;;;;29.66;28.32;97662.00;5050626;28;20107;-83
2021/08/30 01:52:42;;;;;;;1.50;1.33;;;;;;;29.38;28.97;97667.06;5043037;28;20163;-83
2021/08/30 01:55:20;;;;;;;1.95;1.50;;;;;;;29.29;28.98;97667.13;5047173;28;20516;-83
2021/08/30 02:00:45;;;;;;;1.10;1.10;;;;;;;29.39;28.78;97669.41;5045686;28;20497;-83
2021/08/30 02:03:16;;;;;;;1.73;1.13;;;;;;;29.23;28.84;97666.19;5048004;28;20026;-83
2021/08/30 02:05:45;;;;;;;1.33;1.23;;;;;;;29.07;29.32;97670.16;5050701;28;20087;-83
2021/08/30 02:08:15;;;;;;;1.67;1.40;;;;;;;29.38;28.99;97669.88;5044969;28;20405;-83
2021/08/30 02:10:48;;;;;;;1.13;0.98;;;;;;;29.79;28.04;97662.56;5048859;28;20447;-83
2021/08/30 02:13:16;;;;;;;1.23;1.13;;;;;;;29.58;28.34;97664.41;5047434;28;20064;-83
2021/08/30 02:15:44;;;;;;;1.60;1.50;;;;;;;29.66;28.32;97662.78;5047468;28;20039;-83
2021/08/30 02:18:19;;;;;;;1.13;1.13;;;;;;;29.97;27.97;97665.25;5051706;28;20373;-83
2021/08/30 02:21:01;;;;;;;0.98;0.98;;;;;;;30.31;27.32;97650.47;5048750;28;20037;-83
2021/08/30 02:23:34;;;;;;;1.27;1.15;;;;;;;30.68;26.61;97650.91;5045054;28;20030;-83
2021/08/30 02:26:08;;;;;;;3.83;1.50;;;;;;;30.06;27.50;97636.84;5043160;28;20040;-83
2021/08/30 02:28:36;;;;;;;1.33;1.23;;;;;;;29.93;27.55;97647.66;5050965;28;20392;-83
2021/08/30 02:31:03;;;;;;;1.30;1.10;;;;;;;29.32;28.81;97649.94;5050883;28;20033;-83
2021/08/30 02:33:31;;;;;;;1.30;0.93;;;;;;;29.18;29.02;97645.00;5042347;28;20067;-83
2021/08/30 02:36:03;;;;;;;1.92;1.83;;;;;;;28.36;30.09;97635.19;5047215;28;20033;-82
2021/08/30 02:38:31;;;;;;;1.92;1.38;;;;;;;28.78;29.77;97644.50;5046528;28;20124;-84
2021/08/30 02:41:00;;;;;;;1.60;1.50;;;;;;;28.30;30.28;97645.56;5048156;28;20033;-83
2021/08/30 02:43:28;;;;;;;1.40;1.30;;;;;;;28.88;29.52;97643.22;5046225;28;20412;-83
2021/08/30 02:45:56;;;;;;;2.00;1.40;;;;;;;28.08;30.41;97644.97;5048617;28;20032;-83
2021/08/30 02:48:24;;;;;;;1.60;1.50;;;;;;;27.48;31.45;97654.00;5049949;28;20029;-83
2021/08/30 02:50:52;;;;;;;2.17;1.10;;;;;;;27.55;31.95;97648.06;5047909;28;20384;-83
2021/08/30 02:53:21;;;;;;;2.20;1.45;;;;;;;27.34;32.08;97646.13;5049399;28;20195;-83
2021/08/30 02:55:48;;;;;;;1.38;1.23;;;;;;;27.90;31.27;97638.06;5047232;28;20025;-83
2021/08/30 02:58:15;;;;;;;2.85;1.75;;;;;;;27.91;31.08;97647.31;5046391;28;20056;-83
2021/08/30 03:00:41;;;;;;;1.25;1.15;;;;;;;27.82;31.37;97639.59;5046422;28;20040;-83
2021/08/30 03:03:07;;;;;;;1.85;1.15;;;;;;;27.95;31.18;97650.75;5040282;28;20137;-83
2021/08/30 03:05:34;;;;;;;1.58;1.35;;;;;;;27.85;31.33;97646.34;5044430;28;20112;-83
2021/08/30 03:08:00;;;;;;;1.27;1.17;;;;;;;28.05;30.90;97641.81;5049041;28;20195;-83
2021/08/30 03:10:26;;;;;;;1.73;1.40;;;;;;;27.30;31.97;97646.28;5045971;28;20102;-83
2021/08/30 03:12:54;;;;;;;1.70;1.40;;;;;;;27.65;31.83;97655.28;5045784;28;20389;-83
2021/08/30 03:15:23;;;;;;;1.27;1.17;;;;;;;28.03;31.01;97652.00;5043527;28;20052;-83
2021/08/30 03:17:51;;;;;;;1.60;1.50;;;;;;;28.03;31.30;97649.19;5047011;28;20043;-83
2021/08/30 03:20:24;;;;;;;1.55;1.42;;;;;;;27.95;31.35;97647.94;5042934;28;20075;-83
2021/08/30 03:22:51;;;;;;;1.75;1.35;;;;;;;27.22;32.25;97653.44;5041842;28;20037;-83
2021/08/30 03:25:19;;;;;;;1.35;1.08;;;;;;;27.35;32.38;97647.69;5047919;28;20037;-83
2021/08/30 03:27:47;;;;;;;2.30;1.98;;;;;;;27.24;32.31;97645.31;5028749;28;20040;-85
2021/08/30 03:30:15;;;;;;;2.28;1.50;;;;;;;26.87;32.77;97646.44;5041293;28;20493;-84
2021/08/30 03:32:43;;;;;;;2.85;1.20;;;;;;;27.44;32.29;97650.56;5048653;28;20025;-84
2021/08/30 03:35:12;;;;;;;2.35;1.58;;;;;;;27.80;31.58;97641.31;5045696;28;20037;-84
2021/08/30 03:37:41;;;;;;;2.95;1.70;;;;;;;28.17;30.96;97644.97;5017999;28;20034;-84
2021/08/30 03:40:09;;;;;;;1.38;1.27;;;;;;;28.26;30.76;97642.91;5043457;28;20029;-84
2021/08/30 03:42:37;;;;;;;1.15;1.05;;;;;;;28.25;30.83;97641.34;5044482;28;20041;-84
2021/08/30 03:45:04;;;;;;;1.33;1.23;;;;;;;27.76;31.71;97644.31;5049303;28;20079;-84
2021/08/30 03:47:31;;;;;;;1.75;1.45;;;;;;;28.03;31.22;97640.72;5046013;28;20041;-85
2021/08/30 03:49:58;;;;;;;1.52;1.42;;;;;;;28.54;30.38;97641.56;5047635;28;20040;-85
2021/08/30 03:52:25;;;;;;;1.63;1.50;;;;;;;28.30;30.55;97642.75;5049485;28;20519;-85
2021/08/30 03:54:52;;;;;;;1.27;1.23;;;;;;;28.47;30.39;97644.72;5043985;28;20021;-85
2021/08/30 03:57:18;;;;;;;1.20;1.10;;;;;;;28.86;29.82;97645.75;5043954;28;20037;-85
2021/08/30 03:59:53;;;;;;;1.65;1.17;;;;;;;28.82;29.85;97650.81;5047195;28;20044;-85
2021/08/30 04:02:21;;;;;;;1.55;1.45;;;;;;;28.48;30.47;97645.53;5044947;28;20036;-83
2021/08/30 04:04:49;;;;;;;3.53;1.60;;;;;;;28.02;31.25;97644.81;5043269;28;20055;-84
2021/08/30 04:07:17;;;;;;;1.85;1.75;;;;;;;28.13;31.13;97650.75;5043973;28;20041;-84
2021/08/30 04:09:44;;;;;;;2.20;1.60;;;;;;;27.95;31.15;97643.06;5044944;28;20392;-84
2021/08/30 04:12:10;;;;;;;3.78;1.65;;;;;;;27.69;31.61;97646.66;5038867;28;20069;-84
2021/08/30 04:14:37;;;;;;;1.75;1.65;;;;;;;28.56;30.53;97655.25;5039255;28;20504;-85
2021/08/30 04:17:04;;;;;;;1.83;1.73;;;;;;;29.14;29.43;97647.19;5044550;28;20060;-86
2021/08/30 04:19:30;;;;;;;1.73;1.60;;;;;;;28.69;30.05;97647.38;5043451;28;20033;-87
2021/08/30 04:21:56;;;;;;;1.80;1.70;;;;;;;28.11;31.14;97652.47;5048083;28;20109;-86
2021/08/30 04:24:22;;;;;;;1.77;1.67;;;;;;;27.63;31.98;97645.72;5039712;28;20025;-86
2021/08/30 04:26:48;;;;;;;2.17;1.98;;;;;;;27.87;31.54;97635.38;5048374;28;20112;-85
2021/08/30 04:29:14;;;;;;;1.95;1.75;;;;;;;27.88;31.76;97651.06;5039875;28;20045;-85
2021/08/30 04:31:40;;;;;;;2.20;1.50;;;;;;;28.63;30.41;97643.63;5045647;28;20033;-85
2021/08/30 04:34:06;;;;;;;1.80;1.70;;;;;;;28.31;31.04;97656.38;5045464;28;20033;-86
2021/08/30 04:36:32;;;;;;;3.50;1.92;;;;;;;28.37;30.54;97659.34;5045614;28;20033;-87
2021/08/30 04:38:58;;;;;;;2.78;2.28;;;;;;;28.26;31.00;97650.59;5047391;28;20458;-87
2021/08/30 04:41:24;;;;;;;3.03;1.98;;;;;;;28.59;30.74;97651.50;5049115;28;20041;-87
2021/08/30 04:43:51;;;;;;;2.17;1.83;;;;;;;28.53;30.82;97656.97;5045534;28;20024;-85
2021/08/30 04:46:17;;;;;;;2.88;2.25;;;;;;;28.31;31.33;97655.63;5045915;28;20037;-85
2021/08/30 04:48:43;;;;;;;2.72;2.00;;;;;;;27.95;31.77;97657.19;5048794;28;20492;-88
2021/08/30 04:51:09;;;;;;;2.10;1.80;;;;;;;28.08;31.91;97653.44;5047096;28;20021;-92
2021/08/30 04:53:36;;;;;;;2.85;2.03;;;;;;;28.90;30.58;97643.53;5047044;28;20037;-89
2021/08/30 04:56:02;;;;;;;2.38;2.00;;;;;;;29.18;30.28;97653.47;5043112;28;20036;-87
2021/08/30 04:58:28;;;;;;;2.55;2.35;;;;;;;28.92;30.74;97648.69;5045966;28;20067;-87
2021/08/30 05:00:55;;;;;;;2.47;2.03;;;;;;;28.32;31.64;97654.34;5043995;28;20037;-85
2021/08/30 05:03:21;;;;;;;2.03;1.83;;;;;;;28.01;32.43;97657.34;5040112;28;20029;-84
2021/08/30 05:05:47;;;;;;;3.05;2.03;;;;;;;27.93;32.27;97659.69;5044275;28;20040;-86
2021/08/30 05:08:13;;;;;;;3.85;2.13;;;;;;;28.43;31.53;97648.97;5041726;28;20077;-85
2021/08/30 05:10:39;;;;;;;3.80;2.25;;;;;;;28.41;31.64;97657.16;5040401;28;20025;-85
2021/08/30 05:13:05;;;;;;;1.80;1.70;;;;;;;28.26;32.08;97653.44;5042612;28;20025;-85
2021/08/30 05:15:31;;;;;;;3.72;2.67;;;;;;;28.23;31.85;97643.06;5046116;28;20044;-86
2021/08/30 05:17:57;;;;;;;4.53;2.75;;;;;;;28.41;31.86;97645.84;5038481;28;20569;-89
2021/08/30 05:20:23;;;;;;;3.88;2.83;;;;;;;29.06;30.53;97651.63;5046386;28;20044;-88
2021/08/30 05:22:50;;;;;;;3.17;2.28;;;;;;;29.36;30.28;97644.88;5048889;28;20033;-85
2021/08/30 05:25:16;;;;;;;3.95;2.92;;;;;;;29.54;30.17;97649.66;5050209;28;20124;-85
2021/08/30 05:27:44;;;;;;;2.85;2.00;;;;;;;29.41;30.36;97652.72;5051806;28;20060;-85
2021/08/30 05:30:10;;;;;;;3.13;2.28;;;;;;;29.32;30.31;97646.34;5050381;28;20040;-85
2021/08/30 05:32:36;;;;;;;3.03;2.50;;;;;;;29.01;30.52;97652.25;5051756;28;20037;-85
2021/08/30 05:35:03;;;;;;;1.90;1.80;;;;;;;28.26;31.09;97650.59;5045750;28;20041;-85
2021/08/30 05:37:29;;;;;;;3.88;2.72;;;;;;;28.17;31.47;97644.97;5036391;28;20030;-84
2021/08/30 05:39:55;;;;;;;4.93;2.83;;;;;;;27.51;32.61;97644.63;5034248;28;20546;-84
2021/08/30 05:42:21;;;;;;;2.35;2.08;;;;;;;27.48;32.99;97645.53;5033540;28;20033;-85
2021/08/30 05:44:47;;;;;;;3.00;2.33;;;;;;;27.61;32.63;97648.22;5050601;28;20111;-85
2021/08/30 05:47:13;;;;;;;3.00;2.63;;;;;;;28.77;30.84;97640.13;5051310;28;20025;-85
2021/08/30 05:49:39;;;;;;;3.17;2.63;;;;;;;29.25;29.78;97644.66;5047458;28;20048;-85
2021/08/30 05:52:05;;;;;;;2.83;2.63;;;;;;;28.94;30.29;97632.81;5033592;28;20025;-85
2021/08/30 05:54:31;;;;;;;2.95;2.72;;;;;;;29.63;29.30;97635.44;5051376;28;20041;-86
2021/08/30 05:56:58;;;;;;;3.42;2.88;;;;;;;29.95;28.76;97648.75;5052536;28;20110;-86
2021/08/30 05:59:24;;;;;;;3.28;2.97;;;;;;;29.98;28.75;97635.66;5050168;28;20167;-86
2021/08/30 06:01:50;;;;;;;2.72;2.38;;;;;;;30.30;28.35;97648.09;5049408;28;20495;-86
2021/08/30 06:04:16;;;;;;;2.67;2.40;;;;;;;29.47;29.42;97643.56;5050918;28;20044;-85
2021/08/30 06:06:42;;;;;;;2.50;2.15;;;;;;;30.03;28.81;97635.00;5050302;28;20037;-84
2021/08/30 06:09:08;;;;;;;3.10;2.22;;;;;;;30.28;28.21;97639.31;5051149;28;20049;-84
2021/08/30 06:11:34;;;;;;;2.20;1.85;;;;;;;30.58;27.77;97647.38;5050995;28;20099;-84
2021/08/30 06:14:00;;;;;;;2.40;2.20;;;;;;;30.89;27.62;97640.44;5051733;28;20033;-83
2021/08/30 06:16:26;;;;;;;1.60;1.50;;;;;;;30.69;27.69;97644.72;5052407;28;20055;-84
2021/08/30 06:18:52;;;;;;;2.53;1.75;;;;;;;29.92;28.25;97644.03;5050000;28;20044;-84
2021/08/30 06:21:18;;;;;;;2.17;1.98;;;;;;;29.81;28.85;97641.00;5053708;28;20067;-83
2021/08/30 06:23:44;;;;;;;2.47;2.20;;;;;;;29.54;29.34;97632.69;5053955;28;20037;-83
2021/08/30 06:26:10;;;;;;;2.30;1.75;;;;;;;29.03;30.12;97632.03;5054310;28;20028;-84
2021/08/30 06:28:36;;;;;;;2.10;1.90;;;;;;;29.91;28.88;97639.66;5054775;28;20370;-84
2021/08/30 06:31:02;;;;;;;2.80;2.10;;;;;;;28.87;30.19;97638.81;5054107;28;20059;-84
2021/08/30 06:33:28;;;;;;;2.20;2.00;;;;;;;27.48;31.77;97639.91;5054386;28;20090;-84
2021/08/30 06:35:54;;;;;;;1.77;1.67;;;;;;;28.27;30.86;97626.75;5053012;28;20067;-84
2021/08/30 06:38:21;;;;;;;1.58;1.48;;;;;;;27.73;31.87;97628.31;5051536;28;20052;-84
2021/08/30 06:40:47;;;;;;;2.10;1.75;;;;;;;27.30;32.31;97639.84;5050799;28;20041;-84
2021/08/30 06:43:13;;;;;;;1.55;1.45;;;;;;;27.94;31.91;97626.59;5055485;28;20473;-84
2021/08/30 06:45:39;;;;;;;1.30;1.20;;;;;;;28.14;31.28;97628.97;5054328;28;20040;-84
2021/08/30 06:48:05;;;;;;;1.55;1.35;;;;;;;27.57;31.65;97628.63;5054423;28;20028;-84
2021/08/30 06:50:31;;;;;;;2.33;1.80;;;;;;;27.59;31.97;97616.88;5051637;28;20035;-83
2021/08/30 06:52:58;;;;;;;2.15;1.90;;;;;;;27.42;31.93;97609.97;5047188;28;20358;-83
2021/08/30 06:55:24;;;;;;;2.00;1.90;;;;;;;27.01;33.07;97623.31;5046602;28;20068;-84
2021/08/30 06:57:50;;;;;;;2.13;1.40;;;;;;;27.87;31.87;97616.41;5044309;28;20112;-82
2021/08/30 07:00:17;;;;;;;1.80;1.70;;;;;;;28.45;31.09;97604.88;5044265;28;20029;-83
2021/08/30 07:02:44;;;;;;;3.50;1.85;;;;;;;28.52;31.10;97609.44;5043939;28;20029;-83
2021/08/30 07:05:11;;;;;;;2.05;1.90;;;;;;;28.90;30.58;97609.63;5043593;28;20044;-83
2021/08/30 07:07:38;;;;;;;2.92;2.28;;;;;;;28.61;31.09;97598.91;5043694;28;20040;-83
2021/08/30 07:10:04;;;;;;;2.22;1.98;;;;;;;28.24;31.41;97605.88;5043893;28;20048;-83
2021/08/30 07:12:30;;;;;;;2.55;2.35;;;;;;;28.32;31.49;97598.66;5043420;28;20052;-83
2021/08/30 07:14:56;;;;;;;2.28;2.08;;;;;;;27.95;31.77;97600.75;5042912;28;20038;-82
2021/08/30 07:17:22;;;;;;;2.20;2.00;;;;;;;27.93;31.91;97599.66;5042621;28;20051;-82
2021/08/30 07:19:49;;;;;;;2.33;2.13;;;;;;;27.82;32.61;97610.63;5042555;28;20087;-83
2021/08/30 07:22:16;;;;;;;2.42;2.22;;;;;;;28.25;31.32;97606.66;5054722;28;20037;-83
2021/08/30 07:24:42;;;;;;;2.45;2.25;;;;;;;28.21;31.55;97614.53;5052214;28;20029;-84
2021/08/30 07:27:08;;;;;;;2.03;1.90;;;;;;;28.08;31.38;97611.13;5049652;28;20040;-83
2021/08/30 07:29:34;;;;;;;2.92;2.72;;;;;;;27.99;32.03;97617.53;5041913;28;20389;-83
2021/08/30 07:32:00;;;;;;;2.53;2.33;;;;;;;29.24;30.22;97614.03;5031552;28;20037;-83
2021/08/30 07:34:26;;;;;;;2.97;2.78;;;;;;;29.38;29.83;97616.91;5053973;28;20060;-82
2021/08/30 07:36:54;;;;;;;3.75;2.80;;;;;;;28.77;30.36;97609.06;5036325;28;20037;-82
2021/08/30 07:39:21;;;;;;;2.10;1.80;;;;;;;29.52;29.63;97612.59;5052267;28;20072;-84
2021/08/30 07:41:48;;;;;;;2.60;2.25;;;;;;;28.68;30.88;97617.56;5054058;28;20500;-84
2021/08/30 07:44:14;;;;;;;4.35;2.28;;;;;;;29.25;29.93;97618.41;5051898;28;20079;-84
2021/08/30 07:46:40;;;;;;;2.65;2.42;;;;;;;29.29;29.74;97619.78;5038554;28;20060;-83
2021/08/30 07:49:07;;;;;;;2.42;2.10;;;;;;;28.93;30.38;97616.34;5049978;28;20184;-83
2021/08/30 07:51:34;;;;;;;2.40;1.90;;;;;;;28.80;30.91;97618.63;5059075;28;20039;-83
2021/08/30 07:54:00;;;;;;;1.85;1.70;;;;;;;28.94;30.64;97621.53;5053640;28;20074;-83
2021/08/30 07:56:26;;;;;;;1.83;1.73;;;;;;;29.13;30.40;97614.53;5049796;28;20036;-84
2021/08/30 07:58:53;;;;;;;1.90;1.80;;;;;;;29.05;30.13;97610.50;5038944;28;20036;-83
2021/08/30 08:01:19;;;;;;;2.08;1.85;;;;;;;28.33;31.28;97610.75;5040088;28;20044;-84
2021/08/30 08:03:46;;;;;;;1.90;1.73;;;;;;;28.51;31.06;97621.97;5024755;28;20040;-83
2021/08/30 08:06:12;;;;;;;2.63;2.20;;;;;;;27.43;32.86;97626.41;5041947;28;20094;-84
2021/08/30 08:08:38;;;;;;;2.60;2.40;;;;;;;26.15;35.18;97629.91;5038630;28;20045;-84
2021/08/30 08:11:08;;;;;;;2.45;2.03;;;;;;;26.71;34.31;97629.75;5046842;28;20100;-83
2021/08/30 08:13:35;;;;;;;2.38;2.17;;;;;;;26.42;34.84;97638.50;5044346;28;20067;-84
2021/08/30 08:16:01;;;;;;;2.33;2.13;;;;;;;25.90;36.23;97636.44;5047914;28;20029;-83
2021/08/30 08:18:27;;;;;;;2.55;2.35;;;;;;;26.71;34.82;97633.34;5042614;28;20040;-84
2021/08/30 08:20:54;;;;;;;2.22;2.13;;;;;;;27.94;32.71;97626.59;5048118;28;20040;-83
2021/08/30 08:23:20;;;;;;;2.50;2.30;;;;;;;28.46;31.56;97625.44;5045073;28;20036;-85
2021/08/30 08:25:46;;;;;;;1.88;1.70;;;;;;;28.34;31.52;97629.22;5048323;28;20157;-84
2021/08/30 08:28:12;;;;;;;2.05;1.95;;;;;;;26.82;34.26;97640.63;5048526;28;20021;-84
2021/08/30 08:30:39;;;;;;;1.85;1.75;;;;;;;25.91;36.12;97631.56;5046430;28;20115;-83
2021/08/30 08:33:05;;;;;;;1.63;1.52;;;;;;;27.16;34.37;97634.81;5049773;28;20025;-83
2021/08/30 08:35:31;;;;;;;1.60;1.50;;;;;;;26.23;36.11;97628.41;5045961;28;20064;-83
2021/08/30 08:37:57;;;;;;;1.60;1.50;;;;;;;27.95;32.86;97633.81;5051955;28;20033;-83
2021/08/30 08:40:23;;;;;;;1.60;1.50;;;;;;;28.52;31.70;97634.88;5049311;28;20037;-84
2021/08/30 08:42:49;;;;;;;1.60;1.50;;;;;;;28.29;31.89;97636.31;5050128;28;20017;-84
2021/08/30 08:45:17;;;;;;;1.25;1.15;;;;;;;28.80;31.78;97636.34;5041307;28;20138;-82
2021/08/30 08:47:43;;;;;;;3.47;0.90;;;;;;;29.15;30.65;97631.03;5040032;28;20044;-82
2021/08/30 08:50:14;;;;;;;1.25;1.10;;;;;;;29.38;30.41;97642.34;5030426;28;20120;-82
2021/08/30 08:52:44;;;;;;;1.20;1.10;;;;;;;29.27;30.18;97644.94;5042063;28;20516;-82
2021/08/30 08:55:13;;;;;;;1.13;1.02;;;;;;;29.43;30.50;97641.69;5041500;28;20436;-82
2021/08/30 08:57:40;;;;;;;0.90;0.90;;;;;;;30.26;29.35;97645.47;5041760;28;20519;-82
2021/08/30 09:00:11;;;;;;;1.42;1.20;;;;;;;28.68;31.46;97643.00;5037599;28;20040;-83
2021/08/30 09:02:38;;;;;;;1.00;0.98;;;;;;;26.70;34.25;97650.69;5041008;28;20059;-82
2021/08/30 09:05:20;;;;;;;1.90;1.80;;;;;;;23.98;39.92;97654.22;5043654;28;20111;-81
2021/08/30 09:07:46;;;;;;;1.60;1.50;;;;;;;25.13;38.22;97658.78;5040572;28;20053;-82
2021/08/30 09:10:15;;;;;;;1.60;1.50;;;;;;;26.21;36.03;97655.44;5043015;28;20059;-83
2021/08/30 09:12:43;;;;;;;1.13;1.13;;;;;;;26.87;35.06;97654.88;5041681;28;20029;-83
2021/08/30 09:15:15;;;;;;;1.85;1.55;;;;;;;24.70;38.71;97656.50;5045322;28;20032;-82
2021/08/30 09:17:53;;;;;;;1.70;1.60;;;;;;;26.02;36.58;97646.06;5062129;28;20497;-82
2021/08/30 09:20:21;;;;;;;2.38;1.48;;;;;;;25.81;36.68;97653.22;5034558;28;20033;-83
2021/08/30 09:22:48;;;;;;;2.05;1.70;;;;;;;23.51;41.37;97655.13;5050304;28;20082;-82
2021/08/30 09:25:16;;;;;;;1.50;1.40;;;;;;;24.90;38.28;97662.72;5048560;28;20049;-84
2021/08/30 09:27:45;;;;;;;2.08;1.98;;;;;;;26.01;36.55;97652.91;5047867;28;20477;-81
2021/08/30 09:30:12;;;;;;;1.50;1.40;;;;;;;26.24;35.50;97648.88;5052678;28;20029;-84
2021/08/30 09:32:41;;;;;;;2.08;1.67;;;;;;;26.10;36.35;97653.00;5050146;28;20538;-82
2021/08/30 09:35:08;;;;;;;1.58;1.30;;;;;;;28.12;33.21;97646.38;5051115;28;20116;-84
2021/08/30 09:37:37;;;;;;;1.27;1.17;;;;;;;28.94;31.36;97641.31;5050592;28;20092;-82
2021/08/30 09:40:09;;;;;;;1.13;1.10;;;;;;;28.79;31.27;97646.09;5020369;28;20123;-83
2021/08/30 09:42:35;;;;;;;1.33;1.00;;;;;;;28.63;32.00;97649.28;5032760;28;20492;-83
2021/08/30 09:45:28;;;;;;;1.30;1.20;;;;;;;27.19;34.39;97651.56;5046013;28;20029;-83
2021/08/30 09:47:59;;;;;;;1.17;1.10;;;;;;;27.89;33.15;97647.75;5049572;28;20068;-85
2021/08/30 09:50:32;;;;;;;1.30;1.10;;;;;;;29.09;31.59;97649.88;5045911;28;20029;-83
2021/08/30 09:53:01;;;;;;;1.13;1.13;;;;;;;27.47;33.73;97660.88;5050215;28;20029;-82
2021/08/30 09:55:28;;;;;;;1.10;1.00;;;;;;;28.63;32.19;97652.91;5051601;28;20431;-85
2021/08/30 09:57:56;;;;;;;0.95;0.95;;;;;;;29.47;30.86;97649.22;5053240;28;20495;-83
2021/08/30 10:00:22;;;;;;;0.90;0.90;;;;;;;29.53;30.49;97655.78;5052494;28;20384;-83
2021/08/30 10:02:54;;;;;;;1.00;1.00;;;;;;;28.95;31.55;97665.50;5048544;28;20385;-82
2021/08/30 10:05:26;;;;;;;1.05;1.00;;;;;;;28.65;31.75;97656.03;5048644;28;20443;-83
2021/08/30 10:07:55;;;;;;;0.82;0.82;;;;;;;27.77;33.52;97656.41;5053934;28;20045;-84
2021/08/30 10:10:23;;;;;;;1.42;1.17;;;;;;;27.93;33.00;97670.19;5047609;28;20407;-84
2021/08/30 10:12:51;;;;;;;0.77;0.77;;;;;;;28.75;32.30;97654.72;5054318;28;20486;-86
2021/08/30 10:15:22;;;;;;;1.00;1.00;;;;;;;27.97;33.47;97663.13;5052721;28;20115;-85
2021/08/30 10:17:50;;;;;;;1.58;1.17;;;;;;;27.98;33.22;97670.34;5059373;28;20025;-82
2021/08/30 10:20:22;;;;;;;0.93;0.90;;;;;;;27.76;34.00;97669.72;5055354;28;20036;-84
2021/08/30 10:23:00;;;;;;;0.70;0.70;;;;;;;28.06;33.16;97656.72;5048201;28;20117;-83
2021/08/30 10:25:26;;;;;;;1.00;1.00;;;;;;;27.47;33.89;97671.41;5046538;28;20108;-83
2021/08/30 10:27:56;;;;;;;1.33;1.23;;;;;;;26.95;35.06;97669.47;5047039;28;20053;-84
2021/08/30 10:30:23;;;;;;;2.13;1.38;;;;;;;25.88;36.50;97669.84;5045604;28;20052;-84
2021/08/30 10:32:54;;;;;;;2.08;1.88;;;;;;;25.89;36.93;97662.19;5044384;28;20496;-84
2021/08/30 10:35:24;;;;;;;1.10;1.10;;;;;;;26.71;35.54;97666.38;5045729;28;20068;-85
2021/08/30 10:38:00;;;;;;;2.65;1.95;;;;;;;25.30;38.36;97663.00;5047874;28;20043;-85
2021/08/30 10:40:34;;;;;;;1.55;1.45;;;;;;;26.72;36.60;97673.59;5046461;28;20044;-85
2021/08/30 10:43:10;;;;;;;2.00;1.90;;;;;;;26.65;36.55;97679.50;5040992;28;20029;-86
2021/08/30 10:45:56;;;;;;;2.90;2.15;;;;;;;28.92;33.27;97665.66;5044488;28;20469;-84
2021/08/30 10:48:33;;;;;;;2.00;1.90;;;;;;;29.27;32.15;97672.44;5033396;28;20370;-85
2021/08/30 10:51:12;;;;;;;1.92;1.83;;;;;;;29.38;32.70;97675.53;5033268;28;20055;-86
2021/08/30 10:53:38;;;;;;;1.70;1.60;;;;;;;29.65;31.54;97680.22;5039176;28;20231;-86
2021/08/30 10:56:08;;;;;;;2.35;2.15;;;;;;;29.23;31.54;97680.31;5054503;28;20036;-85
2021/08/30 10:58:34;;;;;;;2.85;2.65;;;;;;;29.06;31.85;97691.19;5053347;28;20028;-84
2021/08/30 11:01:11;;;;;;;2.05;1.63;;;;;;;29.23;31.65;97689.59;5049116;28;20037;-86
2021/08/30 11:03:37;;;;;;;2.38;2.10;;;;;;;28.99;31.91;97683.06;5041231;28;20036;-86
2021/08/30 11:06:06;;;;;;;1.83;1.60;;;;;;;29.04;31.94;97688.06;5047182;28;20029;-86
2021/08/30 11:08:33;;;;;;;1.83;1.73;;;;;;;29.36;31.55;97690.16;5043559;28;20052;-86
2021/08/30 11:11:17;;;;;;;1.77;1.67;;;;;;;29.26;31.41;97682.19;5048581;28;20143;-86
2021/08/30 11:14:04;;;;;;;2.03;1.83;;;;;;;29.31;31.95;97693.63;5042270;28;20104;-86
2021/08/30 11:16:34;;;;;;;2.58;2.38;;;;;;;28.17;33.61;97695.78;5043856;28;20069;-86
2021/08/30 11:19:10;;;;;;;2.72;2.40;;;;;;;28.60;33.55;97687.75;5041970;28;20029;-86
2021/08/30 11:21:50;;;;;;;3.33;3.05;;;;;;;27.89;34.58;97692.91;5047671;28;20028;-85
2021/08/30 11:24:30;;;;;;;3.55;3.03;;;;;;;28.43;34.14;97694.97;5051244;28;20095;-85
2021/08/30 11:27:00;;;;;;;3.15;2.80;;;;;;;29.45;33.11;97692.16;5048505;28;20112;-86
2021/08/30 11:29:28;;;;;;;2.90;2.63;;;;;;;28.50;33.32;97691.81;5048522;28;20033;-86
2021/08/30 11:31:54;;;;;;;3.42;3.13;;;;;;;28.70;33.51;97699.81;5030729;28;20032;-85
2021/08/30 11:34:27;;;;;;;3.47;3.17;;;;;;;28.30;34.24;97696.41;5044970;28;20033;-86
2021/08/30 11:36:54;;;;;;;2.75;2.55;;;;;;;29.28;33.01;97693.81;5046532;28;20033;-86
2021/08/30 11:39:21;;;;;;;2.72;2.53;;;;;;;29.91;32.24;97706.81;5046072;28;20076;-86
2021/08/30 11:41:52;;;;;;;3.55;2.78;;;;;;;29.52;32.27;97702.34;5042886;28;20403;-86